EXS64B LDDU-EGCC
Flight info
| Callsign | EXS64B |
|---|---|
| Flight time | N/A |
| Altitude | 36000 |
| Route | AMUGO1V AMUGO DCT SPL DCT ZDA DCT PUL DCT PEVAL DCT MOBDO DCT SOTOV DCT KPT DCT TEDGO DCT LIRSU DCT DENUT L610 LAM UN57 WELIN T420 ELVOS ELVOS1M |
| Aircraft | A321/M-SDE3FGHIRWY/LB1 |
Departure
| Time | N/A |
|---|---|
| Airport | Dubrovnik Ruđer Bošković Airport (LDDU) |
Arrival
| Time | 2026-05-04 18:57 |
|---|---|
| Airport | Manchester Airport (EGCC) |
| Time | Latitude | Longitude | Altitude | Speed | Heading |
|---|---|---|---|---|---|
| 2026-05-04 18:15 | 51.17288 | 3.83525 | 35999 ft | 465 kts | 296° |
| 2026-05-04 18:16 | 51.18961 | 3.78843 | 36008 ft | 465 kts | 296° |
| 2026-05-04 18:16 | 51.22084 | 3.70070 | 36004 ft | 465 kts | 295° |
| 2026-05-04 18:17 | 51.24320 | 3.60549 | 36006 ft | 456 kts | 278° |
| 2026-05-04 18:17 | 51.24967 | 3.55597 | 36006 ft | 456 kts | 278° |
| 2026-05-04 18:18 | 51.30176 | 3.15523 | 36028 ft | 457 kts | 278° |
| 2026-05-04 18:18 | 51.35170 | 2.75654 | 36028 ft | 456 kts | 278° |
| 2026-05-04 18:19 | 51.42460 | 2.15790 | 36029 ft | 458 kts | 278° |
| 2026-05-04 18:19 | 51.47239 | 1.75693 | 36035 ft | 458 kts | 278° |
| 2026-05-04 18:20 | 51.50111 | 1.50516 | 36029 ft | 458 kts | 278° |
| 2026-05-04 18:20 | 51.51254 | 1.40450 | 36044 ft | 458 kts | 278° |
| 2026-05-04 18:21 | 51.52384 | 1.30383 | 36038 ft | 457 kts | 278° |
| 2026-05-04 18:21 | 51.53495 | 1.20329 | 36036 ft | 457 kts | 277° |
| 2026-05-04 18:22 | 51.54600 | 1.10244 | 36040 ft | 457 kts | 277° |
| 2026-05-04 18:22 | 51.55675 | 1.00361 | 36049 ft | 458 kts | 277° |
| 2026-05-04 18:23 | 51.56769 | 0.90282 | 36047 ft | 458 kts | 277° |
| 2026-05-04 18:23 | 51.57848 | 0.80238 | 36048 ft | 458 kts | 277° |
| 2026-05-04 18:24 | 51.58924 | 0.70106 | 36033 ft | 458 kts | 277° |
| 2026-05-04 18:24 | 51.59986 | 0.60019 | 36035 ft | 457 kts | 277° |
| 2026-05-04 18:25 | 51.61047 | 0.49929 | 36044 ft | 457 kts | 277° |
| 2026-05-04 18:25 | 51.62091 | 0.39885 | 36025 ft | 458 kts | 277° |
| 2026-05-04 18:26 | 51.63128 | 0.29742 | 36020 ft | 459 kts | 277° |
| 2026-05-04 18:26 | 51.64081 | 0.21329 | 36017 ft | 461 kts | 283° |
| 2026-05-04 18:27 | 51.65195 | 0.16464 | 36022 ft | 464 kts | 294° |
| 2026-05-04 18:27 | 51.66840 | 0.11973 | 36023 ft | 468 kts | 304° |
| 2026-05-04 18:27 | 51.72007 | 0.03038 | 36030 ft | 471 kts | 312° |
| 2026-05-04 18:28 | 51.76601 | -0.04493 | 36056 ft | 471 kts | 313° |
| 2026-05-04 18:28 | 51.80426 | -0.10803 | 35753 ft | 472 kts | 312° |
| 2026-05-04 18:29 | 51.82714 | -0.14601 | 35377 ft | 471 kts | 312° |
| 2026-05-04 18:29 | 51.85002 | -0.18411 | 34991 ft | 470 kts | 312° |
| 2026-05-04 18:29 | 51.87276 | -0.22199 | 34632 ft | 470 kts | 312° |
| 2026-05-04 18:29 | 51.89558 | -0.26000 | 34275 ft | 470 kts | 312° |
| 2026-05-04 18:30 | 51.94124 | -0.33606 | 33482 ft | 471 kts | 312° |
| 2026-05-04 18:30 | 51.96411 | -0.37420 | 33069 ft | 471 kts | 312° |
| 2026-05-04 18:30 | 51.98694 | -0.41232 | 32656 ft | 471 kts | 312° |
| 2026-05-04 18:31 | 52.01070 | -0.44903 | 32259 ft | 473 kts | 320° |
| 2026-05-04 18:31 | 52.03693 | -0.48133 | 31892 ft | 474 kts | 321° |
| 2026-05-04 18:31 | 52.06298 | -0.51317 | 31511 ft | 474 kts | 321° |
| 2026-05-04 18:31 | 52.08869 | -0.54457 | 31138 ft | 473 kts | 321° |
| 2026-05-04 18:32 | 52.11505 | -0.57684 | 30759 ft | 473 kts | 321° |
| 2026-05-04 18:32 | 52.14138 | -0.60909 | 30391 ft | 474 kts | 321° |
| 2026-05-04 18:32 | 52.16776 | -0.64147 | 30006 ft | 474 kts | 321° |
| 2026-05-04 18:32 | 52.19408 | -0.67385 | 29572 ft | 475 kts | 321° |
| 2026-05-04 18:33 | 52.22046 | -0.70635 | 29111 ft | 476 kts | 321° |
| 2026-05-04 18:33 | 52.24696 | -0.73902 | 28604 ft | 477 kts | 321° |
| 2026-05-04 18:33 | 52.27346 | -0.77178 | 27982 ft | 478 kts | 321° |
| 2026-05-04 18:33 | 52.29976 | -0.80431 | 27326 ft | 478 kts | 320° |
| 2026-05-04 18:34 | 52.32628 | -0.83718 | 26671 ft | 479 kts | 320° |
| 2026-05-04 18:34 | 52.35246 | -0.86969 | 26040 ft | 479 kts | 320° |
| 2026-05-04 18:34 | 52.37887 | -0.90255 | 25416 ft | 475 kts | 320° |
| 2026-05-04 18:34 | 52.40511 | -0.93524 | 24804 ft | 471 kts | 320° |
| 2026-05-04 18:35 | 52.43101 | -0.96759 | 24202 ft | 468 kts | 319° |
| 2026-05-04 18:35 | 52.45694 | -1.00006 | 23609 ft | 470 kts | 319° |
| 2026-05-04 18:35 | 52.48285 | -1.03256 | 22920 ft | 467 kts | 319° |
| 2026-05-04 18:35 | 52.50859 | -1.06489 | 22245 ft | 464 kts | 319° |
| 2026-05-04 18:36 | 52.53426 | -1.09717 | 21583 ft | 464 kts | 320° |
| 2026-05-04 18:36 | 52.55971 | -1.12918 | 20928 ft | 460 kts | 320° |
| 2026-05-04 18:36 | 52.58507 | -1.16110 | 20296 ft | 456 kts | 320° |
| 2026-05-04 18:36 | 52.60990 | -1.19233 | 20028 ft | 440 kts | 320° |
| 2026-05-04 18:37 | 52.63363 | -1.22215 | 19983 ft | 419 kts | 320° |
| 2026-05-04 18:37 | 52.65622 | -1.25057 | 20006 ft | 397 kts | 320° |
| 2026-05-04 18:37 | 52.67759 | -1.27762 | 20008 ft | 378 kts | 320° |
| 2026-05-04 18:37 | 52.69815 | -1.30360 | 20008 ft | 368 kts | 321° |
| 2026-05-04 18:38 | 52.71968 | -1.32668 | 19627 ft | 371 kts | 325° |
| 2026-05-04 18:38 | 52.74165 | -1.34919 | 19153 ft | 370 kts | 326° |
| 2026-05-04 18:38 | 52.76345 | -1.37135 | 18674 ft | 368 kts | 326° |
| 2026-05-04 18:38 | 52.78487 | -1.39314 | 18187 ft | 366 kts | 326° |
| 2026-05-04 18:39 | 52.80575 | -1.41441 | 17706 ft | 363 kts | 326° |
| 2026-05-04 18:39 | 52.82770 | -1.43685 | 17222 ft | 359 kts | 326° |
| 2026-05-04 18:39 | 52.84883 | -1.45847 | 16768 ft | 356 kts | 326° |
| 2026-05-04 18:39 | 52.86925 | -1.48132 | 16364 ft | 350 kts | 318° |
| 2026-05-04 18:40 | 52.88729 | -1.50768 | 15956 ft | 345 kts | 317° |
| 2026-05-04 18:40 | 52.90519 | -1.53390 | 15539 ft | 342 kts | 317° |
| 2026-05-04 18:40 | 52.92294 | -1.55988 | 15105 ft | 339 kts | 317° |
| 2026-05-04 18:40 | 52.94062 | -1.58582 | 14706 ft | 337 kts | 317° |
| 2026-05-04 18:41 | 52.95789 | -1.61119 | 14299 ft | 335 kts | 317° |
| 2026-05-04 18:41 | 52.97525 | -1.63680 | 13887 ft | 333 kts | 317° |
| 2026-05-04 18:41 | 52.99252 | -1.66228 | 13438 ft | 330 kts | 317° |
| 2026-05-04 18:41 | 53.00960 | -1.68754 | 13003 ft | 328 kts | 317° |
| 2026-05-04 18:42 | 53.02651 | -1.71259 | 12607 ft | 325 kts | 317° |
| 2026-05-04 18:42 | 53.04335 | -1.73756 | 12182 ft | 323 kts | 317° |
| 2026-05-04 18:42 | 53.06002 | -1.76233 | 11774 ft | 321 kts | 317° |
| 2026-05-04 18:42 | 53.07662 | -1.78702 | 11364 ft | 318 kts | 317° |
| 2026-05-04 18:43 | 53.09307 | -1.81147 | 10943 ft | 316 kts | 317° |
| 2026-05-04 18:43 | 53.10942 | -1.83582 | 10521 ft | 314 kts | 317° |
| 2026-05-04 18:43 | 53.12555 | -1.85986 | 10286 ft | 307 kts | 317° |
| 2026-05-04 18:43 | 53.14111 | -1.88307 | 10159 ft | 295 kts | 317° |
| 2026-05-04 18:44 | 53.15620 | -1.90558 | 9935 ft | 288 kts | 317° |
| 2026-05-04 18:44 | 53.16600 | -1.92023 | 9781 ft | 285 kts | 317° |
| 2026-05-04 18:44 | 53.18575 | -1.94990 | 9173 ft | 286 kts | 317° |
| 2026-05-04 18:44 | 53.20075 | -1.97108 | 8867 ft | 280 kts | 327° |
| 2026-05-04 18:45 | 53.21877 | -1.98211 | 8544 ft | 277 kts | 354° |
| 2026-05-04 18:45 | 53.23767 | -1.97795 | 8307 ft | 278 kts | 19° |
| 2026-05-04 18:45 | 53.25544 | -1.96461 | 8055 ft | 280 kts | 25° |
| 2026-05-04 18:45 | 53.27193 | -1.94804 | 7789 ft | 280 kts | 33° |
| 2026-05-04 18:46 | 53.28775 | -1.92935 | 7465 ft | 277 kts | 34° |
| 2026-05-04 18:46 | 53.30324 | -1.91070 | 7137 ft | 274 kts | 34° |
| 2026-05-04 18:46 | 53.31854 | -1.89223 | 6823 ft | 270 kts | 34° |
| 2026-05-04 18:46 | 53.33369 | -1.87393 | 6499 ft | 267 kts | 34° |
| 2026-05-04 18:47 | 53.34867 | -1.85581 | 6154 ft | 264 kts | 34° |
| 2026-05-04 18:47 | 53.36344 | -1.83794 | 5813 ft | 260 kts | 34° |
| 2026-05-04 18:47 | 53.37800 | -1.82032 | 5481 ft | 256 kts | 34° |
| 2026-05-04 18:47 | 53.39241 | -1.80288 | 5148 ft | 254 kts | 34° |
| 2026-05-04 18:48 | 53.40668 | -1.78634 | 4995 ft | 243 kts | 25° |
| 2026-05-04 18:48 | 53.42246 | -1.78035 | 4946 ft | 231 kts | 357° |
| 2026-05-04 18:48 | 53.43762 | -1.78707 | 4683 ft | 226 kts | 328° |
| 2026-05-04 18:48 | 53.45037 | -1.80240 | 4415 ft | 225 kts | 322° |
| 2026-05-04 18:49 | 53.46254 | -1.81894 | 4174 ft | 224 kts | 320° |
| 2026-05-04 18:49 | 53.47464 | -1.83547 | 3925 ft | 223 kts | 320° |
| 2026-05-04 18:49 | 53.48664 | -1.85188 | 3665 ft | 223 kts | 320° |
| 2026-05-04 18:49 | 53.49847 | -1.86794 | 3517 ft | 212 kts | 320° |
| 2026-05-04 18:50 | 53.50941 | -1.88325 | 3493 ft | 197 kts | 314° |
| 2026-05-04 18:50 | 53.51624 | -1.90200 | 3505 ft | 185 kts | 287° |
| 2026-05-04 18:50 | 53.51721 | -1.92313 | 3512 ft | 183 kts | 263° |
| 2026-05-04 18:50 | 53.51282 | -1.94287 | 3504 ft | 180 kts | 238° |
| 2026-05-04 18:51 | 53.50515 | -1.95928 | 3502 ft | 177 kts | 233° |
| 2026-05-04 18:51 | 53.49756 | -1.97520 | 3499 ft | 176 kts | 233° |
| 2026-05-04 18:51 | 53.48994 | -1.99119 | 3505 ft | 175 kts | 233° |
| 2026-05-04 18:51 | 53.48232 | -2.00716 | 3504 ft | 175 kts | 233° |
| 2026-05-04 18:52 | 53.47470 | -2.02309 | 3505 ft | 175 kts | 233° |
| 2026-05-04 18:52 | 53.46709 | -2.03902 | 3494 ft | 175 kts | 233° |
| 2026-05-04 18:52 | 53.45944 | -2.05501 | 3353 ft | 175 kts | 233° |
| 2026-05-04 18:52 | 53.45186 | -2.07084 | 3140 ft | 171 kts | 233° |
| 2026-05-04 18:53 | 53.44460 | -2.08598 | 2939 ft | 162 kts | 233° |
| 2026-05-04 18:53 | 53.43783 | -2.10008 | 2720 ft | 150 kts | 234° |
| 2026-05-04 18:53 | 53.43140 | -2.11352 | 2524 ft | 146 kts | 234° |
| 2026-05-04 18:53 | 53.42507 | -2.12671 | 2320 ft | 145 kts | 234° |
| 2026-05-04 18:54 | 53.41881 | -2.13977 | 2119 ft | 143 kts | 236° |
| 2026-05-04 18:54 | 53.41256 | -2.15278 | 1929 ft | 143 kts | 236° |
| 2026-05-04 18:54 | 53.40633 | -2.16575 | 1734 ft | 142 kts | 236° |
| 2026-05-04 18:54 | 53.40015 | -2.17860 | 1520 ft | 141 kts | 236° |
| 2026-05-04 18:55 | 53.39400 | -2.19139 | 1341 ft | 141 kts | 235° |
| 2026-05-04 18:55 | 53.38171 | -2.21680 | 995 ft | 139 kts | 234° |
| 2026-05-04 18:55 | 53.37580 | -2.22945 | 771 ft | 137 kts | 233° |
| 2026-05-04 18:56 | 53.37022 | -2.24095 | 580 ft | 136 kts | 230° |
| 2026-05-04 18:56 | 53.36427 | -2.25312 | 369 ft | 135 kts | 229° |
| 2026-05-04 18:56 | 53.35893 | -2.26415 | 255 ft | 128 kts | 230° |
| 2026-05-04 18:56 | 53.35410 | -2.27403 | 239 ft | 83 kts | 231° |
| 2026-05-04 18:57 | 53.35184 | -2.27867 | 231 ft | 37 kts | 231° |
| 2026-05-04 18:57 | 53.35087 | -2.28099 | 232 ft | 11 kts | 260° |
| 2026-05-04 18:57 | 53.35155 | -2.28201 | 232 ft | 17 kts | 351° |
| 2026-05-04 18:57 | 53.35242 | -2.28192 | 235 ft | 0 kts | 6° |
| 2026-05-04 18:59 | 53.35258 | -2.28189 | 233 ft | 6 kts | 6° |
| 2026-05-04 18:59 | 53.35299 | -2.28182 | 233 ft | 6 kts | 6° |
| 2026-05-04 18:59 | 53.35342 | -2.28174 | 233 ft | 6 kts | 6° |
| 2026-05-04 19:00 | 53.35391 | -2.28166 | 233 ft | 7 kts | 6° |
| 2026-05-04 19:00 | 53.35437 | -2.28157 | 233 ft | 7 kts | 8° |
| 2026-05-04 19:00 | 53.35508 | -2.28110 | 233 ft | 12 kts | 33° |
| 2026-05-04 19:00 | 53.35560 | -2.28034 | 233 ft | 0 kts | 49° |
| 2026-05-04 19:02 | 53.35567 | -2.28020 | 233 ft | 6 kts | 49° |
| 2026-05-04 19:02 | 53.35604 | -2.27947 | 233 ft | 8 kts | 50° |
| 2026-05-04 19:02 | 53.35647 | -2.27897 | 233 ft | 7 kts | 17° |
| 2026-05-04 19:02 | 53.35710 | -2.27882 | 233 ft | 13 kts | 6° |
| 2026-05-04 19:03 | 53.35801 | -2.27866 | 233 ft | 13 kts | 6° |
| 2026-05-04 19:03 | 53.35891 | -2.27850 | 233 ft | 13 kts | 6° |
| 2026-05-04 19:03 | 53.35976 | -2.27875 | 233 ft | 13 kts | 322° |
| 2026-05-04 19:03 | 53.36038 | -2.27979 | 233 ft | 13 kts | 314° |
| 2026-05-04 19:04 | 53.36101 | -2.28086 | 233 ft | 13 kts | 314° |
| 2026-05-04 19:04 | 53.36162 | -2.28192 | 233 ft | 13 kts | 314° |
| 2026-05-04 19:04 | 53.36226 | -2.28302 | 233 ft | 13 kts | 314° |
| 2026-05-04 19:04 | 53.36287 | -2.28407 | 233 ft | 9 kts | 314° |
| 2026-05-04 19:05 | 53.36320 | -2.28465 | 233 ft | 0 kts | 314° |
| 2026-05-04 19:05 | 53.36322 | -2.28468 | 233 ft | 3 kts | 314° |
| 2026-05-04 19:05 | 53.36364 | -2.28509 | 233 ft | 10 kts | 353° |
| 2026-05-04 19:06 | 53.36434 | -2.28506 | 235 ft | 12 kts | 334° |
| 2026-05-04 19:06 | 53.36506 | -2.28623 | 233 ft | 15 kts | 314° |
| 2026-05-04 19:06 | 53.36568 | -2.28731 | 233 ft | 10 kts | 311° |
| 2026-05-04 19:06 | 53.36626 | -2.28773 | 233 ft | 9 kts | 18° |
| 2026-05-04 19:07 | 53.36674 | -2.28704 | 233 ft | 9 kts | 45° |
| 2026-05-04 19:07 | 53.36693 | -2.28673 | 233 ft | 3 kts | 45° |
| 2026-05-04 19:07 | 53.36703 | -2.28644 | 233 ft | 2 kts | 84° |
| 2026-05-04 19:07 | 53.36691 | -2.28604 | 233 ft | 8 kts | 133° |
| 2026-05-04 19:08 | 53.36677 | -2.28579 | 233 ft | 3 kts | 133° |
| 2026-05-04 19:08 | 53.36665 | -2.28559 | 233 ft | 2 kts | 135° |
| 2026-05-04 19:08 | 53.36659 | -2.28550 | 233 ft | 0 kts | 136° |